sensor_id;sensor_type;location;lat;lon;timestamp;pressure;altitude;pressure_sealevel;temperature
21336;BMP180;10826;52.536;13.432;2022-12-10T00:01:19;100314.00;;;6.40
21336;BMP180;10826;52.536;13.432;2022-12-10T00:03:45;100304.00;;;6.40
21336;BMP180;10826;52.536;13.432;2022-12-10T00:06:15;100315.00;;;6.40
21336;BMP180;10826;52.536;13.432;2022-12-10T00:08:44;100305.00;;;6.40
21336;BMP180;10826;52.536;13.432;2022-12-10T00:11:14;100326.00;;;6.30
21336;BMP180;10826;52.536;13.432;2022-12-10T00:13:43;100283.00;;;6.40
21336;BMP180;10826;52.536;13.432;2022-12-10T00:16:12;100300.00;;;6.30
21336;BMP180;10826;52.536;13.432;2022-12-10T00:18:39;100324.00;;;6.40
21336;BMP180;10826;52.536;13.432;2022-12-10T00:21:09;100323.00;;;6.40
21336;BMP180;10826;52.536;13.432;2022-12-10T00:23:36;100323.00;;;6.30
21336;BMP180;10826;52.536;13.432;2022-12-10T00:26:34;100315.00;;;6.50
21336;BMP180;10826;52.536;13.432;2022-12-10T00:29:03;100318.00;;;6.50
21336;BMP180;10826;52.536;13.432;2022-12-10T00:31:32;100325.00;;;6.50
21336;BMP180;10826;52.536;13.432;2022-12-10T00:34:02;100319.00;;;6.50
21336;BMP180;10826;52.536;13.432;2022-12-10T00:36:38;100315.00;;;6.50
21336;BMP180;10826;52.536;13.432;2022-12-10T00:39:05;100325.00;;;6.50
21336;BMP180;10826;52.536;13.432;2022-12-10T00:41:33;100318.00;;;6.50
21336;BMP180;10826;52.536;13.432;2022-12-10T00:43:58;100311.00;;;6.50
21336;BMP180;10826;52.536;13.432;2022-12-10T00:46:28;100335.00;;;6.40
21336;BMP180;10826;52.536;13.432;2022-12-10T00:48:57;100311.00;;;6.40
21336;BMP180;10826;52.536;13.432;2022-12-10T00:51:26;100340.00;;;6.40
21336;BMP180;10826;52.536;13.432;2022-12-10T00:53:56;100341.00;;;6.40
21336;BMP180;10826;52.536;13.432;2022-12-10T00:56:28;100326.00;;;6.30
21336;BMP180;10826;52.536;13.432;2022-12-10T00:58:58;100333.00;;;6.40
21336;BMP180;10826;52.536;13.432;2022-12-10T01:01:37;100338.00;;;6.30
21336;BMP180;10826;52.536;13.432;2022-12-10T01:04:09;100326.00;;;6.30
21336;BMP180;10826;52.536;13.432;2022-12-10T01:06:50;100340.00;;;6.30
21336;BMP180;10826;52.536;13.432;2022-12-10T01:09:23;100332.00;;;6.20
21336;BMP180;10826;52.536;13.432;2022-12-10T01:11:54;100336.00;;;6.20
21336;BMP180;10826;52.536;13.432;2022-12-10T01:14:30;100333.00;;;6.10
21336;BMP180;10826;52.536;13.432;2022-12-10T01:17:01;100342.00;;;6.10
21336;BMP180;10826;52.536;13.432;2022-12-10T01:19:33;100344.00;;;6.10
21336;BMP180;10826;52.536;13.432;2022-12-10T01:21:58;100299.00;;;6.10
21336;BMP180;10826;52.536;13.432;2022-12-10T01:24:27;100339.00;;;6.00
21336;BMP180;10826;52.536;13.432;2022-12-10T01:26:53;100324.00;;;6.00
21336;BMP180;10826;52.536;13.432;2022-12-10T01:29:20;100342.00;;;6.00
21336;BMP180;10826;52.536;13.432;2022-12-10T01:31:51;100339.00;;;5.90
21336;BMP180;10826;52.536;13.432;2022-12-10T01:34:19;100330.00;;;5.90
21336;BMP180;10826;52.536;13.432;2022-12-10T01:36:51;100331.00;;;5.90
21336;BMP180;10826;52.536;13.432;2022-12-10T01:39:22;100342.00;;;5.90
21336;BMP180;10826;52.536;13.432;2022-12-10T01:41:57;100326.00;;;5.80
21336;BMP180;10826;52.536;13.432;2022-12-10T01:46:58;100325.00;;;5.70
21336;BMP180;10826;52.536;13.432;2022-12-10T01:49:35;100325.00;;;5.70
21336;BMP180;10826;52.536;13.432;2022-12-10T01:52:05;100325.00;;;5.70
21336;BMP180;10826;52.536;13.432;2022-12-10T01:54:45;100339.00;;;5.70
21336;BMP180;10826;52.536;13.432;2022-12-10T01:57:22;100323.00;;;5.60
21336;BMP180;10826;52.536;13.432;2022-12-10T01:59:59;100350.00;;;5.40
21336;BMP180;10826;52.536;13.432;2022-12-10T02:02:49;100341.00;;;5.60
21336;BMP180;10826;52.536;13.432;2022-12-10T02:05:51;100345.00;;;5.50
21336;BMP180;10826;52.536;13.432;2022-12-10T02:08:29;100326.00;;;5.40
21336;BMP180;10826;52.536;13.432;2022-12-10T02:11:28;100320.00;;;5.40
21336;BMP180;10826;52.536;13.432;2022-12-10T02:14:13;100321.00;;;5.40
21336;BMP180;10826;52.536;13.432;2022-12-10T02:16:54;100324.00;;;5.40
21336;BMP180;10826;52.536;13.432;2022-12-10T02:20:00;100335.00;;;5.40
21336;BMP180;10826;52.536;13.432;2022-12-10T02:22:35;100319.00;;;5.30
21336;BMP180;10826;52.536;13.432;2022-12-10T02:25:06;100305.00;;;5.30
21336;BMP180;10826;52.536;13.432;2022-12-10T02:28:21;100333.00;;;5.30
21336;BMP180;10826;52.536;13.432;2022-12-10T02:30:51;100310.00;;;5.30
21336;BMP180;10826;52.536;13.432;2022-12-10T02:33:20;100314.00;;;5.30
21336;BMP180;10826;52.536;13.432;2022-12-10T02:35:50;100316.00;;;5.40
21336;BMP180;10826;52.536;13.432;2022-12-10T02:38:28;100317.00;;;5.40
21336;BMP180;10826;52.536;13.432;2022-12-10T02:41:24;100303.00;;;5.50
21336;BMP180;10826;52.536;13.432;2022-12-10T02:43:56;100303.00;;;5.50
21336;BMP180;10826;52.536;13.432;2022-12-10T02:46:25;100309.00;;;5.60
21336;BMP180;10826;52.536;13.432;2022-12-10T02:48:54;100322.00;;;5.60
21336;BMP180;10826;52.536;13.432;2022-12-10T02:51:21;100321.00;;;5.60
21336;BMP180;10826;52.536;13.432;2022-12-10T02:53:46;100300.00;;;5.60
21336;BMP180;10826;52.536;13.432;2022-12-10T02:56:35;100310.00;;;5.70
21336;BMP180;10826;52.536;13.432;2022-12-10T02:59:18;100311.00;;;5.70
21336;BMP180;10826;52.536;13.432;2022-12-10T03:02:04;100313.00;;;5.70
21336;BMP180;10826;52.536;13.432;2022-12-10T03:07:16;100320.00;;;5.70
21336;BMP180;10826;52.536;13.432;2022-12-10T03:10:01;100335.00;;;5.70
21336;BMP180;10826;52.536;13.432;2022-12-10T03:12:40;100320.00;;;5.70
21336;BMP180;10826;52.536;13.432;2022-12-10T03:15:10;100341.00;;;5.70
21336;BMP180;10826;52.536;13.432;2022-12-10T03:17:39;100335.00;;;5.80
21336;BMP180;10826;52.536;13.432;2022-12-10T03:20:13;100338.00;;;5.80
21336;BMP180;10826;52.536;13.432;2022-12-10T03:22:44;100338.00;;;5.80
21336;BMP180;10826;52.536;13.432;2022-12-10T03:25:17;100320.00;;;5.80
21336;BMP180;10826;52.536;13.432;2022-12-10T03:27:47;100325.00;;;5.90
21336;BMP180;10826;52.536;13.432;2022-12-10T03:30:15;100335.00;;;5.90
21336;BMP180;10826;52.536;13.432;2022-12-10T03:32:43;100323.00;;;5.90
21336;BMP180;10826;52.536;13.432;2022-12-10T03:35:11;100326.00;;;5.80
21336;BMP180;10826;52.536;13.432;2022-12-10T03:37:38;100316.00;;;5.90
21336;BMP180;10826;52.536;13.432;2022-12-10T03:40:06;100312.00;;;5.90
21336;BMP180;10826;52.536;13.432;2022-12-10T03:42:36;100309.00;;;5.90
21336;BMP180;10826;52.536;13.432;2022-12-10T03:45:02;100335.00;;;5.80
21336;BMP180;10826;52.536;13.432;2022-12-10T03:47:29;100325.00;;;5.90
21336;BMP180;10826;52.536;13.432;2022-12-10T03:49:54;100324.00;;;5.90
21336;BMP180;10826;52.536;13.432;2022-12-10T03:52:22;100309.00;;;5.90
21336;BMP180;10826;52.536;13.432;2022-12-10T03:54:47;100319.00;;;5.90
21336;BMP180;10826;52.536;13.432;2022-12-10T03:57:13;100331.00;;;5.90
21336;BMP180;10826;52.536;13.432;2022-12-10T03:59:39;100341.00;;;5.90
21336;BMP180;10826;52.536;13.432;2022-12-10T04:02:08;100335.00;;;6.00
21336;BMP180;10826;52.536;13.432;2022-12-10T04:04:36;100334.00;;;6.00
21336;BMP180;10826;52.536;13.432;2022-12-10T04:07:02;100330.00;;;6.00
21336;BMP180;10826;52.536;13.432;2022-12-10T04:09:29;100330.00;;;6.00
21336;BMP180;10826;52.536;13.432;2022-12-10T04:12:02;100332.00;;;6.10
21336;BMP180;10826;52.536;13.432;2022-12-10T04:14:28;100331.00;;;6.00
21336;BMP180;10826;52.536;13.432;2022-12-10T04:17:12;100334.00;;;6.00
21336;BMP180;10826;52.536;13.432;2022-12-10T04:19:38;100332.00;;;6.10
21336;BMP180;10826;52.536;13.432;2022-12-10T04:22:05;100342.00;;;6.10
21336;BMP180;10826;52.536;13.432;2022-12-10T04:24:49;100319.00;;;6.10
21336;BMP180;10826;52.536;13.432;2022-12-10T04:27:38;100334.00;;;6.20
21336;BMP180;10826;52.536;13.432;2022-12-10T04:30:11;100342.00;;;6.20
21336;BMP180;10826;52.536;13.432;2022-12-10T04:32:37;100316.00;;;6.20
21336;BMP180;10826;52.536;13.432;2022-12-10T04:35:04;100314.00;;;6.30
21336;BMP180;10826;52.536;13.432;2022-12-10T04:37:30;100295.00;;;6.40
21336;BMP180;10826;52.536;13.432;2022-12-10T04:40:00;100331.00;;;6.40
21336;BMP180;10826;52.536;13.432;2022-12-10T04:42:29;100321.00;;;6.50
21336;BMP180;10826;52.536;13.432;2022-12-10T04:44:56;100332.00;;;6.50
21336;BMP180;10826;52.536;13.432;2022-12-10T04:47:23;100330.00;;;6.60
21336;BMP180;10826;52.536;13.432;2022-12-10T04:49:49;100325.00;;;6.60
21336;BMP180;10826;52.536;13.432;2022-12-10T04:52:16;100343.00;;;6.60
21336;BMP180;10826;52.536;13.432;2022-12-10T04:54:43;100342.00;;;6.60
21336;BMP180;10826;52.536;13.432;2022-12-10T04:57:10;100337.00;;;6.60
21336;BMP180;10826;52.536;13.432;2022-12-10T04:59:37;100335.00;;;6.60
21336;BMP180;10826;52.536;13.432;2022-12-10T05:02:04;100348.00;;;6.60
21336;BMP180;10826;52.536;13.432;2022-12-10T05:04:30;100324.00;;;6.70
21336;BMP180;10826;52.536;13.432;2022-12-10T05:06:56;100342.00;;;6.70
21336;BMP180;10826;52.536;13.432;2022-12-10T05:09:22;100295.00;;;6.70
21336;BMP180;10826;52.536;13.432;2022-12-10T05:11:48;100342.00;;;6.70
21336;BMP180;10826;52.536;13.432;2022-12-10T05:14:14;100343.00;;;6.80
21336;BMP180;10826;52.536;13.432;2022-12-10T05:16:41;100344.00;;;6.80
21336;BMP180;10826;52.536;13.432;2022-12-10T05:19:09;100344.00;;;6.90
21336;BMP180;10826;52.536;13.432;2022-12-10T05:21:35;100309.00;;;6.90
21336;BMP180;10826;52.536;13.432;2022-12-10T05:24:20;100341.00;;;7.00
21336;BMP180;10826;52.536;13.432;2022-12-10T05:26:46;100317.00;;;7.00
21336;BMP180;10826;52.536;13.432;2022-12-10T05:29:17;100341.00;;;7.00
21336;BMP180;10826;52.536;13.432;2022-12-10T05:31:45;100345.00;;;7.00
21336;BMP180;10826;52.536;13.432;2022-12-10T05:34:16;100342.00;;;7.10
21336;BMP180;10826;52.536;13.432;2022-12-10T05:36:43;100344.00;;;7.00
21336;BMP180;10826;52.536;13.432;2022-12-10T05:39:10;100357.00;;;7.00
21336;BMP180;10826;52.536;13.432;2022-12-10T05:41:40;100345.00;;;7.00
21336;BMP180;10826;52.536;13.432;2022-12-10T05:44:07;100343.00;;;7.00
21336;BMP180;10826;52.536;13.432;2022-12-10T05:46:34;100336.00;;;7.00
21336;BMP180;10826;52.536;13.432;2022-12-10T05:49:01;100356.00;;;7.00
21336;BMP180;10826;52.536;13.432;2022-12-10T05:51:32;100354.00;;;7.00
21336;BMP180;10826;52.536;13.432;2022-12-10T05:53:59;100349.00;;;7.00
21336;BMP180;10826;52.536;13.432;2022-12-10T05:56:27;100353.00;;;7.00
21336;BMP180;10826;52.536;13.432;2022-12-10T05:58:59;100348.00;;;7.00
21336;BMP180;10826;52.536;13.432;2022-12-10T06:01:33;100358.00;;;7.10
21336;BMP180;10826;52.536;13.432;2022-12-10T06:04:01;100356.00;;;7.00
21336;BMP180;10826;52.536;13.432;2022-12-10T06:06:37;100360.00;;;7.10
21336;BMP180;10826;52.536;13.432;2022-12-10T06:09:06;100341.00;;;7.10
21336;BMP180;10826;52.536;13.432;2022-12-10T06:11:32;100360.00;;;7.10
21336;BMP180;10826;52.536;13.432;2022-12-10T06:13:59;100361.00;;;7.10
21336;BMP180;10826;52.536;13.432;2022-12-10T06:16:26;100360.00;;;7.10
21336;BMP180;10826;52.536;13.432;2022-12-10T06:18:53;100333.00;;;7.10
21336;BMP180;10826;52.536;13.432;2022-12-10T06:21:22;100318.00;;;7.20
21336;BMP180;10826;52.536;13.432;2022-12-10T06:23:52;100362.00;;;7.20
21336;BMP180;10826;52.536;13.432;2022-12-10T06:26:25;100362.00;;;7.20
21336;BMP180;10826;52.536;13.432;2022-12-10T06:28:52;100358.00;;;7.20
21336;BMP180;10826;52.536;13.432;2022-12-10T06:31:19;100330.00;;;7.30
21336;BMP180;10826;52.536;13.432;2022-12-10T06:33:46;100360.00;;;7.30
21336;BMP180;10826;52.536;13.432;2022-12-10T06:36:15;100379.00;;;7.30
21336;BMP180;10826;52.536;13.432;2022-12-10T06:38:41;100345.00;;;7.30
21336;BMP180;10826;52.536;13.432;2022-12-10T06:41:09;100382.00;;;7.40
21336;BMP180;10826;52.536;13.432;2022-12-10T06:43:36;100384.00;;;7.40
21336;BMP180;10826;52.536;13.432;2022-12-10T06:46:08;100376.00;;;7.40
21336;BMP180;10826;52.536;13.432;2022-12-10T06:48:35;100385.00;;;7.30
21336;BMP180;10826;52.536;13.432;2022-12-10T06:51:02;100389.00;;;7.30
21336;BMP180;10826;52.536;13.432;2022-12-10T06:53:28;100384.00;;;7.30
21336;BMP180;10826;52.536;13.432;2022-12-10T06:55:57;100379.00;;;7.30
21336;BMP180;10826;52.536;13.432;2022-12-10T06:58:23;100374.00;;;7.30
21336;BMP180;10826;52.536;13.432;2022-12-10T07:00:51;100371.00;;;7.40
21336;BMP180;10826;52.536;13.432;2022-12-10T07:03:17;100397.00;;;7.30
21336;BMP180;10826;52.536;13.432;2022-12-10T07:05:43;100393.00;;;7.30
21336;BMP180;10826;52.536;13.432;2022-12-10T07:08:09;100388.00;;;7.30
21336;BMP180;10826;52.536;13.432;2022-12-10T07:10:37;100396.00;;;7.40
21336;BMP180;10826;52.536;13.432;2022-12-10T07:13:02;100401.00;;;7.40
21336;BMP180;10826;52.536;13.432;2022-12-10T07:15:31;100394.00;;;7.40
21336;BMP180;10826;52.536;13.432;2022-12-10T07:17:56;100395.00;;;7.40
21336;BMP180;10826;52.536;13.432;2022-12-10T07:20:22;100401.00;;;7.40
21336;BMP180;10826;52.536;13.432;2022-12-10T07:22:47;100409.00;;;7.40
21336;BMP180;10826;52.536;13.432;2022-12-10T07:25:13;100404.00;;;7.40
21336;BMP180;10826;52.536;13.432;2022-12-10T07:27:39;100404.00;;;7.50
21336;BMP180;10826;52.536;13.432;2022-12-10T07:30:05;100399.00;;;7.40
21336;BMP180;10826;52.536;13.432;2022-12-10T07:32:32;100396.00;;;7.40
21336;BMP180;10826;52.536;13.432;2022-12-10T07:34:58;100415.00;;;7.40
21336;BMP180;10826;52.536;13.432;2022-12-10T07:37:25;100377.00;;;7.40
21336;BMP180;10826;52.536;13.432;2022-12-10T07:39:51;100413.00;;;7.40
21336;BMP180;10826;52.536;13.432;2022-12-10T07:42:17;100400.00;;;7.40
21336;BMP180;10826;52.536;13.432;2022-12-10T07:44:43;100416.00;;;7.40
21336;BMP180;10826;52.536;13.432;2022-12-10T07:47:09;100418.00;;;7.30
21336;BMP180;10826;52.536;13.432;2022-12-10T07:49:36;100384.00;;;7.30
21336;BMP180;10826;52.536;13.432;2022-12-10T07:52:02;100414.00;;;7.30
21336;BMP180;10826;52.536;13.432;2022-12-10T07:54:28;100427.00;;;7.30
21336;BMP180;10826;52.536;13.432;2022-12-10T07:56:54;100436.00;;;7.30
21336;BMP180;10826;52.536;13.432;2022-12-10T07:59:19;100433.00;;;7.30
21336;BMP180;10826;52.536;13.432;2022-12-10T08:01:45;100433.00;;;7.40
21336;BMP180;10826;52.536;13.432;2022-12-10T08:04:11;100440.00;;;7.30
21336;BMP180;10826;52.536;13.432;2022-12-10T08:06:37;100431.00;;;7.30
21336;BMP180;10826;52.536;13.432;2022-12-10T08:09:02;100410.00;;;7.40
21336;BMP180;10826;52.536;13.432;2022-12-10T08:11:28;100435.00;;;7.40
21336;BMP180;10826;52.536;13.432;2022-12-10T08:13:55;100439.00;;;7.40
21336;BMP180;10826;52.536;13.432;2022-12-10T08:16:23;100429.00;;;7.50
21336;BMP180;10826;52.536;13.432;2022-12-10T08:18:52;100408.00;;;7.50
21336;BMP180;10826;52.536;13.432;2022-12-10T08:21:24;100397.00;;;7.60
21336;BMP180;10826;52.536;13.432;2022-12-10T08:23:50;100446.00;;;7.60
21336;BMP180;10826;52.536;13.432;2022-12-10T08:26:19;100450.00;;;7.70
21336;BMP180;10826;52.536;13.432;2022-12-10T08:28:46;100450.00;;;7.70
21336;BMP180;10826;52.536;13.432;2022-12-10T08:31:14;100441.00;;;7.70
21336;BMP180;10826;52.536;13.432;2022-12-10T08:33:41;100448.00;;;7.70
21336;BMP180;10826;52.536;13.432;2022-12-10T08:36:10;100459.00;;;7.80
21336;BMP180;10826;52.536;13.432;2022-12-10T08:38:36;100460.00;;;7.80
21336;BMP180;10826;52.536;13.432;2022-12-10T08:41:11;100454.00;;;7.90
21336;BMP180;10826;52.536;13.432;2022-12-10T08:43:37;100453.00;;;7.80
21336;BMP180;10826;52.536;13.432;2022-12-10T08:46:03;100422.00;;;7.90
21336;BMP180;10826;52.536;13.432;2022-12-10T08:48:29;100452.00;;;7.80
21336;BMP180;10826;52.536;13.432;2022-12-10T08:50:57;100457.00;;;7.80
21336;BMP180;10826;52.536;13.432;2022-12-10T08:53:24;100457.00;;;7.80
21336;BMP180;10826;52.536;13.432;2022-12-10T08:55:52;100428.00;;;7.80
21336;BMP180;10826;52.536;13.432;2022-12-10T08:58:18;100462.00;;;7.80
21336;BMP180;10826;52.536;13.432;2022-12-10T09:00:44;100460.00;;;7.80
21336;BMP180;10826;52.536;13.432;2022-12-10T09:03:10;100475.00;;;7.80
21336;BMP180;10826;52.536;13.432;2022-12-10T09:05:37;100474.00;;;7.80
21336;BMP180;10826;52.536;13.432;2022-12-10T09:08:02;100471.00;;;7.80
21336;BMP180;10826;52.536;13.432;2022-12-10T09:10:28;100474.00;;;7.80
21336;BMP180;10826;52.536;13.432;2022-12-10T09:12:54;100476.00;;;7.80
21336;BMP180;10826;52.536;13.432;2022-12-10T09:15:20;100430.00;;;7.80
21336;BMP180;10826;52.536;13.432;2022-12-10T09:17:46;100465.00;;;7.90
21336;BMP180;10826;52.536;13.432;2022-12-10T09:20:12;100435.00;;;7.80
21336;BMP180;10826;52.536;13.432;2022-12-10T09:22:38;100476.00;;;7.90
21336;BMP180;10826;52.536;13.432;2022-12-10T09:25:06;100478.00;;;7.90
21336;BMP180;10826;52.536;13.432;2022-12-10T09:27:34;100477.00;;;7.90
21336;BMP180;10826;52.536;13.432;2022-12-10T09:30:00;100468.00;;;7.90
21336;BMP180;10826;52.536;13.432;2022-12-10T09:32:26;100451.00;;;7.90
21336;BMP180;10826;52.536;13.432;2022-12-10T09:34:53;100489.00;;;8.00
21336;BMP180;10826;52.536;13.432;2022-12-10T09:37:19;100476.00;;;8.00
21336;BMP180;10826;52.536;13.432;2022-12-10T09:39:45;100476.00;;;8.00
21336;BMP180;10826;52.536;13.432;2022-12-10T09:45:18;100482.00;;;8.10
21336;BMP180;10826;52.536;13.432;2022-12-10T09:48:25;100445.00;;;8.10
21336;BMP180;10826;52.536;13.432;2022-12-10T09:51:21;100445.00;;;8.10
21336;BMP180;10826;52.536;13.432;2022-12-10T09:53:54;100467.00;;;8.20
21336;BMP180;10826;52.536;13.432;2022-12-10T09:56:29;100484.00;;;8.20
21336;BMP180;10826;52.536;13.432;2022-12-10T09:59:03;100471.00;;;8.20
21336;BMP180;10826;52.536;13.432;2022-12-10T10:01:34;100425.00;;;8.20
21336;BMP180;10826;52.536;13.432;2022-12-10T10:04:03;100467.00;;;8.30
21336;BMP180;10826;52.536;13.432;2022-12-10T10:06:29;100477.00;;;8.30
21336;BMP180;10826;52.536;13.432;2022-12-10T10:09:00;100480.00;;;8.30
21336;BMP180;10826;52.536;13.432;2022-12-10T10:11:34;100470.00;;;8.30
21336;BMP180;10826;52.536;13.432;2022-12-10T10:14:28;100443.00;;;8.40
21336;BMP180;10826;52.536;13.432;2022-12-10T10:17:03;100458.00;;;8.40
21336;BMP180;10826;52.536;13.432;2022-12-10T10:19:36;100469.00;;;8.30
21336;BMP180;10826;52.536;13.432;2022-12-10T10:22:05;100468.00;;;8.30
21336;BMP180;10826;52.536;13.432;2022-12-10T10:24:41;100476.00;;;8.30
21336;BMP180;10826;52.536;13.432;2022-12-10T10:27:23;100485.00;;;8.40
21336;BMP180;10826;52.536;13.432;2022-12-10T10:29:55;100436.00;;;8.30
21336;BMP180;10826;52.536;13.432;2022-12-10T10:35:02;100476.00;;;8.30
21336;BMP180;10826;52.536;13.432;2022-12-10T10:37:41;100462.00;;;8.40
21336;BMP180;10826;52.536;13.432;2022-12-10T10:41:12;100476.00;;;8.40
21336;BMP180;10826;52.536;13.432;2022-12-10T10:43:33;100464.00;;;8.40
21336;BMP180;10826;52.536;13.432;2022-12-10T10:46:22;100457.00;;;8.30
21336;BMP180;10826;52.536;13.432;2022-12-10T10:48:49;100453.00;;;8.30
21336;BMP180;10826;52.536;13.432;2022-12-10T10:51:21;100450.00;;;8.30
21336;BMP180;10826;52.536;13.432;2022-12-10T10:53:55;100450.00;;;8.20
21336;BMP180;10826;52.536;13.432;2022-12-10T10:56:27;100450.00;;;8.20
21336;BMP180;10826;52.536;13.432;2022-12-10T10:58:58;100451.00;;;8.20
21336;BMP180;10826;52.536;13.432;2022-12-10T11:01:45;100454.00;;;8.30
21336;BMP180;10826;52.536;13.432;2022-12-10T11:04:13;100446.00;;;8.30
21336;BMP180;10826;52.536;13.432;2022-12-10T11:06:41;100457.00;;;8.30
21336;BMP180;10826;52.536;13.432;2022-12-10T11:09:08;100447.00;;;8.30
21336;BMP180;10826;52.536;13.432;2022-12-10T11:11:40;100417.00;;;8.30
21336;BMP180;10826;52.536;13.432;2022-12-10T11:14:44;100449.00;;;8.40
21336;BMP180;10826;52.536;13.432;2022-12-10T11:20:13;100439.00;;;8.40
21336;BMP180;10826;52.536;13.432;2022-12-10T11:23:05;100438.00;;;8.40
21336;BMP180;10826;52.536;13.432;2022-12-10T11:32:29;100433.00;;;8.30
21336;BMP180;10826;52.536;13.432;2022-12-10T11:35:20;100431.00;;;8.30
21336;BMP180;10826;52.536;13.432;2022-12-10T11:38:06;100441.00;;;8.30
21336;BMP180;10826;52.536;13.432;2022-12-10T11:44:04;100437.00;;;8.20
21336;BMP180;10826;52.536;13.432;2022-12-10T11:52:47;100425.00;;;8.30
21336;BMP180;10826;52.536;13.432;2022-12-10T11:55:51;100432.00;;;8.20
21336;BMP180;10826;52.536;13.432;2022-12-10T12:15:48;100441.00;;;8.00
21336;BMP180;10826;52.536;13.432;2022-12-10T12:18:27;100455.00;;;7.90
21336;BMP180;10826;52.536;13.432;2022-12-10T12:21:04;100442.00;;;8.00
21336;BMP180;10826;52.536;13.432;2022-12-10T12:23:46;100442.00;;;8.00
21336;BMP180;10826;52.536;13.432;2022-12-10T12:26:40;100461.00;;;8.10
21336;BMP180;10826;52.536;13.432;2022-12-10T12:29:44;100454.00;;;8.10
21336;BMP180;10826;52.536;13.432;2022-12-10T12:32:25;100457.00;;;8.10
21336;BMP180;10826;52.536;13.432;2022-12-10T12:35:12;100461.00;;;8.10
21336;BMP180;10826;52.536;13.432;2022-12-10T12:37:46;100459.00;;;8.10
21336;BMP180;10826;52.536;13.432;2022-12-10T12:40:28;100463.00;;;8.10
21336;BMP180;10826;52.536;13.432;2022-12-10T12:43:03;100446.00;;;8.10
21336;BMP180;10826;52.536;13.432;2022-12-10T12:45:47;100458.00;;;8.10
21336;BMP180;10826;52.536;13.432;2022-12-10T12:48:18;100457.00;;;8.10
21336;BMP180;10826;52.536;13.432;2022-12-10T12:51:09;100448.00;;;8.10
21336;BMP180;10826;52.536;13.432;2022-12-10T12:53:36;100454.00;;;8.10
21336;BMP180;10826;52.536;13.432;2022-12-10T12:56:26;100456.00;;;8.20
21336;BMP180;10826;52.536;13.432;2022-12-10T12:59:19;100454.00;;;8.20
21336;BMP180;10826;52.536;13.432;2022-12-10T13:01:57;100457.00;;;8.20
21336;BMP180;10826;52.536;13.432;2022-12-10T13:04:26;100456.00;;;8.30
21336;BMP180;10826;52.536;13.432;2022-12-10T13:10:41;100464.00;;;8.40
21336;BMP180;10826;52.536;13.432;2022-12-10T13:15:36;100469.00;;;8.20
21336;BMP180;10826;52.536;13.432;2022-12-10T13:18:39;100470.00;;;8.20
21336;BMP180;10826;52.536;13.432;2022-12-10T13:21:31;100464.00;;;8.20
21336;BMP180;10826;52.536;13.432;2022-12-10T13:24:12;100459.00;;;8.10
21336;BMP180;10826;52.536;13.432;2022-12-10T13:30:37;100485.00;;;8.10
21336;BMP180;10826;52.536;13.432;2022-12-10T13:33:05;100459.00;;;8.10
21336;BMP180;10826;52.536;13.432;2022-12-10T13:35:42;100486.00;;;8.10
21336;BMP180;10826;52.536;13.432;2022-12-10T13:38:26;100491.00;;;8.10
21336;BMP180;10826;52.536;13.432;2022-12-10T13:41:05;100494.00;;;7.90
21336;BMP180;10826;52.536;13.432;2022-12-10T13:44:00;100490.00;;;8.10
21336;BMP180;10826;52.536;13.432;2022-12-10T13:46:56;100483.00;;;8.00
21336;BMP180;10826;52.536;13.432;2022-12-10T13:49:26;100481.00;;;8.00
21336;BMP180;10826;52.536;13.432;2022-12-10T13:52:07;100484.00;;;8.00
21336;BMP180;10826;52.536;13.432;2022-12-10T13:57:34;100494.00;;;7.90
21336;BMP180;10826;52.536;13.432;2022-12-10T14:00:29;100464.00;;;7.80
21336;BMP180;10826;52.536;13.432;2022-12-10T14:03:07;100498.00;;;7.80
21336;BMP180;10826;52.536;13.432;2022-12-10T14:05:55;100508.00;;;7.80
21336;BMP180;10826;52.536;13.432;2022-12-10T14:08:29;100492.00;;;7.70
21336;BMP180;10826;52.536;13.432;2022-12-10T14:10:59;100489.00;;;7.70
21336;BMP180;10826;52.536;13.432;2022-12-10T14:13:39;100492.00;;;7.70
21336;BMP180;10826;52.536;13.432;2022-12-10T14:16:13;100500.00;;;7.70
21336;BMP180;10826;52.536;13.432;2022-12-10T14:19:01;100491.00;;;7.70
21336;BMP180;10826;52.536;13.432;2022-12-10T14:21:34;100490.00;;;7.70
21336;BMP180;10826;52.536;13.432;2022-12-10T14:24:00;100493.00;;;7.70
21336;BMP180;10826;52.536;13.432;2022-12-10T14:26:33;100500.00;;;7.80
21336;BMP180;10826;52.536;13.432;2022-12-10T14:29:20;100476.00;;;7.80
21336;BMP180;10826;52.536;13.432;2022-12-10T14:31:50;100499.00;;;7.70
21336;BMP180;10826;52.536;13.432;2022-12-10T14:34:26;100480.00;;;7.70
21336;BMP180;10826;52.536;13.432;2022-12-10T14:36:57;100488.00;;;7.70
21336;BMP180;10826;52.536;13.432;2022-12-10T14:39:31;100495.00;;;7.70
21336;BMP180;10826;52.536;13.432;2022-12-10T14:42:02;100493.00;;;7.70
21336;BMP180;10826;52.536;13.432;2022-12-10T14:44:31;100499.00;;;7.70
21336;BMP180;10826;52.536;13.432;2022-12-10T14:47:16;100508.00;;;7.80
21336;BMP180;10826;52.536;13.432;2022-12-10T14:49:47;100510.00;;;7.70
21336;BMP180;10826;52.536;13.432;2022-12-10T14:52:22;100505.00;;;7.70
21336;BMP180;10826;52.536;13.432;2022-12-10T14:54:49;100506.00;;;7.70
21336;BMP180;10826;52.536;13.432;2022-12-10T14:57:25;100514.00;;;7.70
21336;BMP180;10826;52.536;13.432;2022-12-10T15:00:09;100521.00;;;7.70
21336;BMP180;10826;52.536;13.432;2022-12-10T15:02:46;100517.00;;;7.70
21336;BMP180;10826;52.536;13.432;2022-12-10T15:05:24;100516.00;;;7.60
21336;BMP180;10826;52.536;13.432;2022-12-10T15:08:04;100524.00;;;7.60
21336;BMP180;10826;52.536;13.432;2022-12-10T15:10:41;100519.00;;;7.50
21336;BMP180;10826;52.536;13.432;2022-12-10T15:13:32;100519.00;;;7.60
21336;BMP180;10826;52.536;13.432;2022-12-10T15:15:59;100509.00;;;7.50
21336;BMP180;10826;52.536;13.432;2022-12-10T15:18:37;100524.00;;;7.60
21336;BMP180;10826;52.536;13.432;2022-12-10T15:21:19;100525.00;;;7.60
21336;BMP180;10826;52.536;13.432;2022-12-10T15:23:47;100516.00;;;7.50
21336;BMP180;10826;52.536;13.432;2022-12-10T15:26:28;100522.00;;;7.60
21336;BMP180;10826;52.536;13.432;2022-12-10T15:32:08;100523.00;;;7.60